createdAt,value
2019-05-10T00:02:01.507Z,99838.12
2019-05-10T00:04:49.534Z,99837.75
2019-05-10T00:07:37.460Z,99840.70
2019-05-10T00:10:06.783Z,99846.28
2019-05-10T00:12:40.076Z,99843.98
2019-05-10T00:15:11.500Z,99840.73
2019-05-10T00:17:41.556Z,99843.50
2019-05-10T00:20:11.868Z,99841.42
2019-05-10T00:22:41.876Z,99839.63
2019-05-10T00:25:12.112Z,99840.11
2019-05-10T00:27:42.269Z,99838.39
2019-05-10T00:30:15.612Z,99842.32
2019-05-10T00:32:45.704Z,99846.14
2019-05-10T00:35:15.914Z,99850.20
2019-05-10T00:37:46.188Z,99849.05
2019-05-10T00:40:16.336Z,99851.94
2019-05-10T00:42:46.383Z,99850.86
2019-05-10T00:45:16.448Z,99853.61
2019-05-10T00:47:46.443Z,99852.76
2019-05-10T00:50:16.591Z,99861.27
2019-05-10T00:52:46.790Z,99855.48
2019-05-10T00:55:19.272Z,99865.52
2019-05-10T00:57:48.486Z,99865.52
2019-05-10T01:00:19.624Z,99864.14
2019-05-10T01:02:49.641Z,99874.84
2019-05-10T01:05:19.613Z,99874.84
2019-05-10T01:07:49.713Z,99874.59
2019-05-10T01:10:19.720Z,99872.05
2019-05-10T01:12:49.715Z,99875.66
2019-05-10T01:15:20.096Z,99877.16
2019-05-10T01:17:51.590Z,99875.14
2019-05-10T01:20:21.667Z,99880.65
2019-05-10T01:22:53.153Z,99883.98
2019-05-10T01:25:34.767Z,99887.97
2019-05-10T01:27:54.955Z,99885.14
2019-05-10T01:30:25.137Z,99885.14
2019-05-10T01:32:55.288Z,99891.59
2019-05-10T01:35:25.331Z,99883.38
2019-05-10T01:37:55.406Z,99886.14
2019-05-10T01:40:25.919Z,99885.14
2019-05-10T01:42:55.935Z,99885.14
2019-05-10T01:45:25.941Z,99895.25
2019-05-10T01:47:55.928Z,99894.61
2019-05-10T01:50:26.016Z,99894.80
2019-05-10T01:52:57.168Z,99895.08
2019-05-10T01:55:27.177Z,99895.08
2019-05-10T01:57:57.157Z,99900.23
2019-05-10T02:00:27.192Z,99897.88
2019-05-10T02:02:57.189Z,99904.81
2019-05-10T02:05:27.253Z,99911.00
2019-05-10T02:07:57.253Z,99907.09
2019-05-10T02:10:27.345Z,99909.17
2019-05-10T02:12:57.396Z,99911.79
2019-05-10T02:15:27.369Z,99921.38
2019-05-10T02:17:57.379Z,99920.73
2019-05-10T02:20:27.501Z,99920.73
2019-05-10T02:22:57.516Z,99929.22
2019-05-10T02:25:27.563Z,99930.45
2019-05-10T02:27:57.581Z,99933.92
2019-05-10T02:30:27.567Z,99932.09
2019-05-10T02:32:57.635Z,99936.02
2019-05-10T02:35:27.625Z,99943.56
2019-05-10T02:37:59.143Z,99943.56
2019-05-10T02:40:32.191Z,99942.98
2019-05-10T02:43:02.192Z,99938.09
2019-05-10T02:45:32.746Z,99940.70
2019-05-10T02:48:02.768Z,99940.70
2019-05-10T02:50:32.976Z,99958.47
2019-05-10T02:53:03.248Z,99948.98
2019-05-10T02:55:34.877Z,99946.86
2019-05-10T02:58:07.178Z,99958.98
2019-05-10T03:00:40.250Z,99961.22
2019-05-10T03:03:12.085Z,99962.11
2019-05-10T03:05:48.207Z,99963.94
2019-05-10T03:08:15.988Z,99958.34
2019-05-10T03:10:56.199Z,99964.34
2019-05-10T03:13:30.301Z,99964.20
2019-05-10T03:16:03.577Z,99972.31
2019-05-10T03:18:35.322Z,99980.72
2019-05-10T03:21:08.397Z,99982.61
2019-05-10T03:23:38.483Z,99977.01
2019-05-10T03:26:08.553Z,99978.69
2019-05-10T03:28:38.567Z,99982.09
2019-05-10T03:31:08.567Z,99990.78
2019-05-10T03:33:38.585Z,99981.30
2019-05-10T03:36:09.025Z,99991.23
2019-05-10T03:38:39.393Z,99996.45
2019-05-10T03:41:09.467Z,100003.88
2019-05-10T03:43:39.496Z,100003.88
2019-05-10T03:46:09.511Z,100004.66
2019-05-10T03:48:39.545Z,100004.66
2019-05-10T03:51:09.547Z,100007.03
2019-05-10T03:53:42.527Z,100010.88
2019-05-10T03:56:12.530Z,100004.48
2019-05-10T03:58:42.552Z,100004.48
2019-05-10T04:01:13.225Z,100014.73
2019-05-10T04:03:43.259Z,100014.14
2019-05-10T04:06:13.348Z,100014.14
2019-05-10T04:08:43.443Z,100012.77
2019-05-10T04:11:13.485Z,100011.91
2019-05-10T04:13:43.510Z,100018.05
2019-05-10T04:16:16.117Z,100015.38
2019-05-10T04:18:45.270Z,100015.00
2019-05-10T04:21:15.296Z,100015.00
2019-05-10T04:23:45.305Z,100026.23
2019-05-10T04:26:17.789Z,100026.23
2019-05-10T04:28:47.826Z,100029.60
2019-05-10T04:31:17.823Z,100033.52
2019-05-10T04:33:47.854Z,100033.34
2019-05-10T04:36:17.878Z,100038.95
2019-05-10T04:38:47.914Z,100038.23
2019-05-10T04:41:17.934Z,100043.52
2019-05-10T04:43:47.961Z,100047.45
2019-05-10T04:46:18.041Z,100049.91
2019-05-10T04:48:48.147Z,100054.10
2019-05-10T04:51:18.149Z,100058.41
2019-05-10T04:53:48.192Z,100055.86
2019-05-10T04:56:18.313Z,100063.52
2019-05-10T04:58:48.392Z,100057.30
2019-05-10T05:01:18.449Z,100062.64
2019-05-10T05:03:48.459Z,100068.92
2019-05-10T05:06:18.497Z,100068.92
2019-05-10T05:08:48.512Z,100064.45
2019-05-10T05:11:18.546Z,100077.41
2019-05-10T05:13:48.540Z,100077.41
2019-05-10T05:16:18.640Z,100080.67
2019-05-10T05:18:49.418Z,100087.73
2019-05-10T05:21:19.519Z,100083.52
2019-05-10T05:23:49.528Z,100080.38
2019-05-10T05:26:19.561Z,100088.30
2019-05-10T05:28:49.562Z,100094.99
2019-05-10T05:31:19.591Z,100094.92
2019-05-10T05:33:49.747Z,100092.28
2019-05-10T05:36:19.920Z,100095.82
2019-05-10T05:38:49.930Z,100100.23
2019-05-10T05:41:19.968Z,100106.41
2019-05-10T05:43:50.007Z,100105.21
2019-05-10T05:46:20.044Z,100104.47
2019-05-10T05:48:51.631Z,100108.05
2019-05-10T05:51:21.773Z,100108.53
2019-05-10T05:53:51.839Z,100110.63
2019-05-10T05:56:21.947Z,100111.64
2019-05-10T05:58:51.950Z,100119.41
2019-05-10T06:01:26.425Z,100112.34
2019-05-10T06:03:53.704Z,100115.08
2019-05-10T06:06:23.786Z,100119.79
2019-05-10T06:08:54.490Z,100122.25
2019-05-10T06:11:29.740Z,100116.09
2019-05-10T06:13:57.272Z,100128.35
2019-05-10T06:16:27.285Z,100131.94
2019-05-10T06:18:57.343Z,100134.92
2019-05-10T06:21:27.360Z,100134.73
2019-05-10T06:23:59.392Z,100137.03
2019-05-10T06:26:29.138Z,100142.66
2019-05-10T06:29:03.738Z,100149.05
2019-05-10T06:31:30.895Z,100148.95
2019-05-10T06:34:00.922Z,100156.27
2019-05-10T06:36:31.941Z,100157.23
2019-05-10T06:39:02.035Z,100164.05
2019-05-10T06:41:33.200Z,100160.13
2019-05-10T06:44:03.277Z,100165.61
2019-05-10T06:46:33.378Z,100162.52
2019-05-10T06:49:08.295Z,100170.30
2019-05-10T06:51:35.104Z,100177.18
2019-05-10T06:54:05.208Z,100167.65
2019-05-10T06:56:35.237Z,100173.14
2019-05-10T06:59:13.574Z,100177.86
2019-05-10T07:01:38.118Z,100168.97
2019-05-10T07:04:08.825Z,100172.91
2019-05-10T07:06:38.866Z,100173.40
2019-05-10T07:09:10.263Z,100171.91
2019-05-10T07:11:40.354Z,100170.65
2019-05-10T07:14:10.527Z,100181.77
2019-05-10T07:16:40.569Z,100174.33
2019-05-10T07:19:10.637Z,100178.56
2019-05-10T07:21:44.768Z,100172.30
2019-05-10T07:24:12.395Z,100172.01
2019-05-10T07:26:42.493Z,100179.46
2019-05-10T07:29:28.747Z,100179.61
2019-05-10T07:31:44.291Z,100182.55
2019-05-10T07:34:15.841Z,100186.94
2019-05-10T07:36:46.113Z,100189.93
2019-05-10T07:39:16.194Z,100191.16
2019-05-10T07:41:46.382Z,100188.48
2019-05-10T07:44:16.407Z,100189.34
2019-05-10T07:46:53.268Z,100189.95
2019-05-10T07:49:18.232Z,100189.39
2019-05-10T07:51:48.244Z,100198.75
2019-05-10T07:54:18.263Z,100200.76
2019-05-10T07:56:48.308Z,100196.37
2019-05-10T07:59:22.050Z,100201.75
2019-05-10T08:01:50.680Z,100205.63
2019-05-10T08:04:29.102Z,100204.13
2019-05-10T08:06:52.589Z,100209.63
2019-05-10T08:09:22.733Z,100215.59
2019-05-10T08:11:53.965Z,100213.41
2019-05-10T08:14:25.484Z,100221.20
2019-05-10T08:17:01.923Z,100215.95
2019-05-10T08:19:32.696Z,100225.65
2019-05-10T08:22:01.920Z,100237.67
2019-05-10T08:24:35.144Z,100233.11
2019-05-10T08:27:11.231Z,100238.19
2019-05-10T08:29:35.555Z,100242.56
2019-05-10T08:32:06.239Z,100256.44
2019-05-10T08:34:39.349Z,100258.30
2019-05-10T08:37:08.223Z,100254.67
2019-05-10T08:39:45.666Z,100262.19
2019-05-10T08:42:30.424Z,100265.91
2019-05-10T08:44:43.841Z,100272.30
2019-05-10T08:47:22.377Z,100273.73
2019-05-10T08:50:06.439Z,100275.91
2019-05-10T08:52:19.283Z,100269.19
2019-05-10T08:54:49.754Z,100275.73
2019-05-10T08:57:22.145Z,100289.20
2019-05-10T08:59:56.109Z,100289.48
2019-05-10T09:02:29.369Z,100291.05
2019-05-10T09:04:55.068Z,100294.08
2019-05-10T09:07:29.340Z,100301.14
2019-05-10T09:09:57.952Z,100301.94
2019-05-10T09:12:32.917Z,100296.62
2019-05-10T09:15:09.379Z,100305.07
2019-05-10T09:17:34.535Z,100310.68
2019-05-10T09:20:06.227Z,100311.99
2019-05-10T09:22:38.698Z,100309.00
2019-05-10T09:25:09.373Z,100311.99
2019-05-10T09:27:43.306Z,100314.89
2019-05-10T09:30:18.542Z,100316.70
2019-05-10T09:32:52.023Z,100321.14
2019-05-10T09:35:22.327Z,100320.81
2019-05-10T09:37:58.543Z,100320.20
2019-05-10T09:40:26.375Z,100323.86
2019-05-10T09:42:59.470Z,100329.89
2019-05-10T09:45:32.277Z,100335.53
2019-05-10T09:48:02.656Z,100333.48
2019-05-10T09:50:41.275Z,100340.03
2019-05-10T09:53:06.729Z,100348.67
2019-05-10T09:55:36.995Z,100341.80
2019-05-10T09:58:08.583Z,100350.72
2019-05-10T10:00:38.838Z,100355.64
2019-05-10T10:03:12.783Z,100360.55
2019-05-10T10:05:41.029Z,100360.11
2019-05-10T10:08:11.248Z,100364.00
2019-05-10T10:10:42.979Z,100363.42
2019-05-10T10:13:14.088Z,100375.23
2019-05-10T10:15:49.509Z,100375.23
2019-05-10T10:18:21.154Z,100382.00
2019-05-10T10:20:48.289Z,100383.18
2019-05-10T10:23:18.482Z,100389.16
2019-05-10T10:25:48.615Z,100398.27
2019-05-10T10:28:23.404Z,100401.72
2019-05-10T10:30:59.951Z,100396.95
2019-05-10T10:33:29.080Z,100401.19
2019-05-10T10:36:04.842Z,100403.44
2019-05-10T10:38:37.111Z,100407.22
2019-05-10T10:41:05.233Z,100414.45
2019-05-10T10:43:37.055Z,100418.20
2019-05-10T10:46:11.898Z,100418.45
2019-05-10T10:48:43.735Z,100425.95
2019-05-10T10:51:12.562Z,100423.21
2019-05-10T10:53:42.728Z,100423.41
2019-05-10T10:56:12.816Z,100431.23
2019-05-10T10:58:42.809Z,100431.38
2019-05-10T11:01:21.726Z,100431.16
2019-05-10T11:03:44.879Z,100426.06
2019-05-10T11:06:16.054Z,100427.75
2019-05-10T11:08:45.995Z,100428.52
2019-05-10T11:11:16.034Z,100432.06
2019-05-10T11:13:57.559Z,100434.64
2019-05-10T11:16:18.031Z,100444.75
2019-05-10T11:18:48.125Z,100442.81
2019-05-10T11:21:18.195Z,100442.72
2019-05-10T11:23:48.283Z,100445.27
2019-05-10T11:26:21.731Z,100449.50
2019-05-10T11:28:51.531Z,100452.50
2019-05-10T11:31:22.396Z,100455.50
2019-05-10T11:33:58.184Z,100463.00
2019-05-10T11:36:24.167Z,100464.16
2019-05-10T11:38:58.492Z,100468.22
2019-05-10T11:41:26.277Z,100474.08
2019-05-10T11:44:05.249Z,100471.84
2019-05-10T11:46:31.021Z,100479.70
2019-05-10T11:49:01.854Z,100480.76
2019-05-10T11:51:33.109Z,100484.06
2019-05-10T11:54:03.208Z,100495.11
2019-05-10T11:56:33.774Z,100492.17
2019-05-10T11:59:06.553Z,100501.30
2019-05-10T12:01:41.503Z,100496.20
2019-05-10T12:04:13.177Z,100498.81
2019-05-10T12:06:41.206Z,100500.12
2019-05-10T12:09:12.565Z,100511.04
2019-05-10T12:11:51.903Z,100522.09
2019-05-10T12:14:14.487Z,100525.89
2019-05-10T12:16:45.474Z,100528.03
2019-05-10T12:19:20.729Z,100529.48
2019-05-10T12:21:47.744Z,100536.83
2019-05-10T12:24:34.110Z,100534.31
2019-05-10T12:27:17.457Z,100536.63
2019-05-10T12:29:23.062Z,100540.27
2019-05-10T12:31:56.867Z,100538.34
2019-05-10T12:34:25.309Z,100542.70
2019-05-10T12:36:57.532Z,100537.84
2019-05-10T12:39:27.175Z,100545.64
2019-05-10T12:41:57.175Z,100541.38
2019-05-10T12:44:28.393Z,100545.97
2019-05-10T12:47:01.159Z,100547.13
2019-05-10T12:49:36.323Z,100542.98
2019-05-10T12:52:09.133Z,100544.02
2019-05-10T12:54:36.992Z,100544.80
2019-05-10T12:57:08.639Z,100547.88
2019-05-10T12:59:40.870Z,100543.84
2019-05-10T13:02:13.067Z,100551.88
2019-05-10T13:04:47.138Z,100550.31
2019-05-10T13:07:15.444Z,100555.95
2019-05-10T13:09:49.478Z,100550.44
2019-05-10T13:12:17.287Z,100556.38
2019-05-10T13:14:52.358Z,100552.50
2019-05-10T13:17:19.019Z,100555.56
2019-05-10T13:19:52.821Z,100561.93
2019-05-10T13:22:20.951Z,100558.35
2019-05-10T13:24:50.972Z,100567.80
2019-05-10T13:27:21.236Z,100569.30
2019-05-10T13:29:53.551Z,100570.43
2019-05-10T13:32:25.971Z,100575.70
2019-05-10T13:34:55.960Z,100583.36
2019-05-10T13:37:25.982Z,100584.52
2019-05-10T13:39:58.488Z,100589.77
2019-05-10T13:42:27.699Z,100584.60
2019-05-10T13:44:57.687Z,100593.11
2019-05-10T13:47:27.914Z,100594.27
2019-05-10T13:49:58.576Z,100583.75
2019-05-10T13:52:38.119Z,100597.28
2019-05-10T13:55:06.738Z,100597.22
2019-05-10T13:57:38.185Z,100594.05
2019-05-10T14:00:11.651Z,100601.70
2019-05-10T14:02:41.922Z,100600.53
2019-05-10T14:05:17.349Z,100601.55
2019-05-10T14:07:50.930Z,100601.92
2019-05-10T14:10:18.126Z,100610.12
2019-05-10T14:12:48.338Z,100616.04
2019-05-10T14:15:18.969Z,100613.58
2019-05-10T14:17:49.070Z,100617.00
2019-05-10T14:20:24.556Z,100623.98
2019-05-10T14:22:55.672Z,100623.20
2019-05-10T14:25:22.860Z,100617.77
2019-05-10T14:27:52.881Z,100622.41
2019-05-10T14:30:22.974Z,100632.16
2019-05-10T14:32:52.991Z,100630.08
2019-05-10T14:35:24.503Z,100629.73
2019-05-10T14:37:54.691Z,100629.10
2019-05-10T14:40:30.482Z,100631.08
2019-05-10T14:42:56.450Z,100626.75
2019-05-10T14:45:26.522Z,100624.74
2019-05-10T14:47:56.701Z,100622.03
2019-05-10T14:50:28.468Z,100630.58
2019-05-10T14:52:58.740Z,100639.48
2019-05-10T14:55:34.594Z,100640.66
2019-05-10T14:58:04.663Z,100643.92
2019-05-10T15:00:34.812Z,100653.84
2019-05-10T15:03:05.125Z,100644.61
2019-05-10T15:05:36.497Z,100653.79
2019-05-10T15:08:06.730Z,100662.25
2019-05-10T15:10:39.560Z,100652.75
2019-05-10T15:13:08.687Z,100650.45
2019-05-10T15:15:38.883Z,100664.13
2019-05-10T15:18:09.021Z,100665.41
2019-05-10T15:20:39.291Z,100668.73
2019-05-10T15:23:09.488Z,100662.27
2019-05-10T15:25:54.657Z,100674.44
2019-05-10T15:28:11.371Z,100672.84
2019-05-10T15:30:45.325Z,100674.21
2019-05-10T15:33:13.107Z,100675.27
2019-05-10T15:35:45.742Z,100673.38
2019-05-10T15:38:16.166Z,100675.89
2019-05-10T15:40:46.251Z,100673.87
2019-05-10T15:43:18.775Z,100682.47
2019-05-10T15:45:52.654Z,100680.63
2019-05-10T15:48:22.077Z,100675.62
2019-05-10T15:50:52.099Z,100682.97
2019-05-10T15:53:25.415Z,100681.52
2019-05-10T15:55:59.024Z,100685.23
2019-05-10T15:58:25.585Z,100686.76
2019-05-10T16:00:55.761Z,100688.50
2019-05-10T16:03:25.857Z,100686.52
2019-05-10T16:06:00.864Z,100693.69
2019-05-10T16:08:30.178Z,100688.42
2019-05-10T16:10:59.382Z,100690.48
2019-05-10T16:13:29.546Z,100699.73
2019-05-10T16:15:59.687Z,100702.61
2019-05-10T16:18:33.480Z,100703.91
2019-05-10T16:21:01.399Z,100710.33
2019-05-10T16:23:31.410Z,100712.22
2019-05-10T16:26:01.710Z,100712.84
2019-05-10T16:28:31.728Z,100715.94
2019-05-10T16:31:01.755Z,100710.52
2019-05-10T16:33:31.821Z,100710.94
2019-05-10T16:36:01.846Z,100711.84
2019-05-10T16:38:31.946Z,100719.23
2019-05-10T16:41:01.948Z,100710.48
2019-05-10T16:43:33.669Z,100709.14
2019-05-10T16:46:03.692Z,100701.84
2019-05-10T16:48:37.684Z,100710.42
2019-05-10T16:51:12.863Z,100706.62
2019-05-10T16:53:45.918Z,100712.52
2019-05-10T16:56:18.784Z,100709.66
2019-05-10T16:58:53.210Z,100716.99
2019-05-10T17:01:25.132Z,100715.17
2019-05-10T17:03:59.656Z,100721.55
2019-05-10T17:06:23.308Z,100721.13
2019-05-10T17:08:53.332Z,100723.62
2019-05-10T17:11:23.471Z,100718.16
2019-05-10T17:13:55.587Z,100728.30
2019-05-10T17:16:27.502Z,100732.08
2019-05-10T17:18:57.604Z,100726.94
2019-05-10T17:21:27.710Z,100732.73
2019-05-10T17:24:01.592Z,100728.70
2019-05-10T17:26:32.883Z,100735.02
2019-05-10T17:29:07.346Z,100736.55
2019-05-10T17:31:39.573Z,100744.92
2019-05-10T17:34:06.770Z,100742.55
2019-05-10T17:36:40.377Z,100740.45
2019-05-10T17:39:13.168Z,100742.88
2019-05-10T17:41:43.164Z,100744.41
2019-05-10T17:44:17.415Z,100738.50
2019-05-10T17:46:50.156Z,100744.69
2019-05-10T17:49:19.513Z,100741.34
2019-05-10T17:51:49.562Z,100744.43
2019-05-10T17:54:19.637Z,100748.90
2019-05-10T17:56:49.707Z,100751.25
2019-05-10T17:59:19.723Z,100744.17
2019-05-10T18:01:49.884Z,100748.77
2019-05-10T18:04:25.653Z,100746.00
2019-05-10T18:06:55.727Z,100746.58
2019-05-10T18:09:27.487Z,100751.23
2019-05-10T18:11:57.781Z,100759.86
2019-05-10T18:14:29.604Z,100759.06
2019-05-10T18:16:59.756Z,100761.02
2019-05-10T18:19:29.767Z,100763.91
2019-05-10T18:22:05.784Z,100765.44
2019-05-10T18:24:36.312Z,100756.02
2019-05-10T18:27:06.179Z,100754.20
2019-05-10T18:29:36.176Z,100755.89
2019-05-10T18:32:06.282Z,100762.64
2019-05-10T18:34:36.347Z,100751.38
2019-05-10T18:37:06.383Z,100755.59
2019-05-10T18:39:36.420Z,100758.97
2019-05-10T18:42:06.576Z,100756.63
2019-05-10T18:44:36.575Z,100761.37
2019-05-10T18:47:09.624Z,100760.27
2019-05-10T18:49:39.900Z,100751.28
2019-05-10T18:52:09.990Z,100757.14
2019-05-10T18:54:39.992Z,100754.41
2019-05-10T18:57:11.595Z,100759.52
2019-05-10T18:59:45.390Z,100761.14
2019-05-10T19:02:17.683Z,100760.84
2019-05-10T19:04:45.661Z,100775.80
2019-05-10T19:07:22.543Z,100770.23
2019-05-10T19:09:53.623Z,100769.98
2019-05-10T19:12:24.235Z,100775.52
2019-05-10T19:14:54.758Z,100774.44
2019-05-10T19:17:24.780Z,100777.43
2019-05-10T19:19:54.936Z,100774.67
2019-05-10T19:22:26.041Z,100776.69
2019-05-10T19:24:57.039Z,100776.77
2019-05-10T19:27:27.353Z,100779.64
2019-05-10T19:29:57.348Z,100789.47
2019-05-10T19:32:27.362Z,100801.88
2019-05-10T19:34:58.896Z,100796.81
2019-05-10T19:37:34.151Z,100798.77
2019-05-10T19:40:00.900Z,100807.16
2019-05-10T19:42:37.186Z,100800.88
2019-05-10T19:45:12.854Z,100802.83
2019-05-10T19:47:41.379Z,100792.33
2019-05-10T19:50:11.544Z,100814.30
2019-05-10T19:52:41.732Z,100809.75
2019-05-10T19:55:12.864Z,100810.00
2019-05-10T19:57:43.815Z,100808.07
2019-05-10T20:00:14.749Z,100806.28
2019-05-10T20:02:44.812Z,100806.28
2019-05-10T20:05:15.575Z,100813.88
2019-05-10T20:07:46.620Z,100810.14
2019-05-10T20:10:16.863Z,100814.70
2019-05-10T20:12:47.995Z,100820.19
2019-05-10T20:15:18.656Z,100819.45
2019-05-10T20:17:50.037Z,100815.23
2019-05-10T20:20:20.249Z,100814.51
2019-05-10T20:22:50.397Z,100822.06
2019-05-10T20:25:20.817Z,100824.67
2019-05-10T20:27:50.768Z,100825.97
2019-05-10T20:30:22.115Z,100827.94
2019-05-10T20:32:52.115Z,100829.58
2019-05-10T20:35:22.144Z,100826.22
2019-05-10T20:38:01.312Z,100834.95
2019-05-10T20:40:24.019Z,100830.82
2019-05-10T20:42:55.616Z,100830.63
2019-05-10T20:45:25.612Z,100825.14
2019-05-10T20:47:55.710Z,100831.06
2019-05-10T20:50:26.191Z,100833.70
2019-05-10T20:52:56.228Z,100837.17
2019-05-10T20:55:26.233Z,100839.70
2019-05-10T20:57:58.331Z,100841.40
2019-05-10T21:00:28.422Z,100845.70
2019-05-10T21:02:58.557Z,100849.97
2019-05-10T21:05:28.537Z,100854.70
2019-05-10T21:08:15.822Z,100859.44
2019-05-10T21:10:32.399Z,100868.88
2019-05-10T21:13:02.429Z,100865.59
2019-05-10T21:15:32.538Z,100873.65
2019-05-10T21:18:02.548Z,100872.62
2019-05-10T21:20:32.570Z,100870.84
2019-05-10T21:23:02.578Z,100870.92
2019-05-10T21:25:32.606Z,100871.80
2019-05-10T21:28:02.606Z,100863.85
2019-05-10T21:30:32.716Z,100856.52
2019-05-10T21:33:05.403Z,100861.17
2019-05-10T21:35:35.424Z,100858.48
2019-05-10T21:38:05.429Z,100860.41
2019-05-10T21:40:35.450Z,100860.87
2019-05-10T21:43:05.528Z,100857.95
2019-05-10T21:45:35.616Z,100856.50
2019-05-10T21:48:05.633Z,100859.35
2019-05-10T21:50:35.704Z,100865.96
2019-05-10T21:53:06.300Z,100874.80
2019-05-10T21:55:36.311Z,100879.11
2019-05-10T21:58:06.327Z,100874.70
2019-05-10T22:00:38.177Z,100869.03
2019-05-10T22:03:08.420Z,100870.66
2019-05-10T22:05:38.571Z,100864.92
2019-05-10T22:08:08.616Z,100863.08
2019-05-10T22:10:39.181Z,100865.18
2019-05-10T22:13:09.283Z,100869.81
2019-05-10T22:15:39.427Z,100868.91
2019-05-10T22:18:09.463Z,100869.67
2019-05-10T22:20:39.457Z,100869.48
2019-05-10T22:23:09.537Z,100865.86
2019-05-10T22:25:39.550Z,100870.02
2019-05-10T22:28:09.547Z,100866.61
2019-05-10T22:30:39.576Z,100861.48
2019-05-10T22:33:09.606Z,100857.61
2019-05-10T22:35:40.701Z,100859.63
2019-05-10T22:38:10.738Z,100857.70
2019-05-10T22:40:40.803Z,100854.15
2019-05-10T22:43:11.371Z,100856.24
2019-05-10T22:45:41.459Z,100861.53
2019-05-10T22:48:11.463Z,100863.34
2019-05-10T22:50:41.885Z,100867.77
2019-05-10T22:53:11.889Z,100867.25
2019-05-10T22:55:41.917Z,100866.31
2019-05-10T22:58:11.923Z,100861.30
2019-05-10T23:00:42.078Z,100850.05
2019-05-10T23:03:12.101Z,100852.65
2019-05-10T23:05:42.189Z,100853.16
2019-05-10T23:08:13.819Z,100859.32
2019-05-10T23:10:44.008Z,100858.41
2019-05-10T23:13:14.071Z,100852.34
2019-05-10T23:15:44.089Z,100853.25
2019-05-10T23:18:14.105Z,100847.28
2019-05-10T23:20:44.112Z,100844.13
2019-05-10T23:23:14.116Z,100838.92
2019-05-10T23:25:46.897Z,100841.13
2019-05-10T23:28:17.431Z,100850.17
2019-05-10T23:30:47.583Z,100846.73
2019-05-10T23:33:17.584Z,100847.64
2019-05-10T23:35:47.607Z,100847.23
2019-05-10T23:38:17.606Z,100848.03
2019-05-10T23:40:47.636Z,100860.03
2019-05-10T23:43:17.638Z,100856.95
2019-05-10T23:45:47.673Z,100856.59
2019-05-10T23:48:19.103Z,100855.09
2019-05-10T23:50:49.129Z,100852.45
2019-05-10T23:53:19.766Z,100856.67
2019-05-10T23:55:49.782Z,100864.37
2019-05-10T23:58:19.788Z,100862.52
